Time;durP1;ratioP1;P1;durP2;ratioP2;P2;SDS_P1;SDS_P2;PMS_P1;PMS_P2;Temp;Humidity;BMP_temperature;BMP_pressure;BME280_temperature;BME280_humidity;BME280_pressure;Samples;Min_cycle;Max_cycle;Signal;HPM_P1;HPM_P2
2021/03/21 00:01:57;;;;;;;10.73;2.53;;;5.10;72.80;;;;;;5058913;28;20024;-70
2021/03/21 00:04:25;;;;;;;4.93;2.58;;;5.10;73.20;;;;;;5062272;28;20405;-72
2021/03/21 00:06:51;;;;;;;4.95;2.30;;;5.10;73.20;;;;;;5060831;28;20490;-70
2021/03/21 00:09:16;;;;;;;5.25;2.67;;;5.10;74.00;;;;;;5064103;28;20119;-70
2021/03/21 00:11:42;;;;;;;8.77;2.97;;;5.10;74.10;;;;;;5050163;28;20482;-70
2021/03/21 00:14:08;;;;;;;6.03;2.83;;;5.10;74.00;;;;;;5058935;28;20112;-70
2021/03/21 00:16:35;;;;;;;6.65;2.63;;;5.10;74.20;;;;;;5056542;28;20135;-70
2021/03/21 00:19:00;;;;;;;6.25;2.88;;;5.10;74.50;;;;;;5059723;28;20386;-70
2021/03/21 00:21:26;;;;;;;4.35;2.53;;;5.10;74.50;;;;;;5061905;28;20379;-70
2021/03/21 00:23:52;;;;;;;5.65;2.83;;;5.10;75.00;;;;;;5045416;28;20066;-70
2021/03/21 00:26:21;;;;;;;4.97;2.53;;;5.10;75.40;;;;;;5045482;28;20017;-71
2021/03/21 00:28:47;;;;;;;6.70;3.00;;;5.10;77.00;;;;;;5061327;28;20024;-70
2021/03/21 00:31:14;;;;;;;5.15;2.60;;;5.10;77.20;;;;;;5056804;28;20032;-70
2021/03/21 00:33:41;;;;;;;9.52;2.95;;;5.10;77.90;;;;;;5062851;28;20119;-70
2021/03/21 00:36:10;;;;;;;5.22;2.95;;;5.10;79.50;;;;;;5061198;28;20024;-70
2021/03/21 00:38:38;;;;;;;6.75;3.03;;;5.10;80.70;;;;;;5051289;28;20039;-70
2021/03/21 00:41:06;;;;;;;6.28;3.25;;;5.00;81.40;;;;;;5041343;28;20040;-70
2021/03/21 00:43:31;;;;;;;10.57;2.75;;;5.00;82.00;;;;;;5054520;28;20034;-70
2021/03/21 00:45:57;;;;;;;4.57;2.95;;;5.00;82.50;;;;;;5043018;28;20016;-70
2021/03/21 00:48:32;;;;;;;10.27;3.22;;;5.10;83.30;;;;;;5052899;28;20086;-71
2021/03/21 00:50:58;;;;;;;7.07;2.90;;;5.10;84.40;;;;;;5047650;28;20057;-70
2021/03/21 00:53:24;;;;;;;6.32;3.30;;;5.00;85.40;;;;;;5044355;28;20088;-70
2021/03/21 00:55:50;;;;;;;5.57;3.45;;;5.00;87.40;;;;;;5041048;28;20110;-71
2021/03/21 00:58:16;;;;;;;7.47;3.50;;;5.00;90.10;;;;;;5040914;28;20579;-70
2021/03/21 01:00:45;;;;;;;4.68;3.10;;;5.00;90.50;;;;;;5044056;28;20025;-71
2021/03/21 01:03:12;;;;;;;5.47;3.30;;;5.00;90.80;;;;;;5040765;28;20025;-70
2021/03/21 01:05:42;;;;;;;6.78;4.00;;;5.00;91.60;;;;;;5042629;28;20017;-70
2021/03/21 01:08:18;;;;;;;10.15;3.63;;;5.00;92.50;;;;;;5043684;28;20086;-71
2021/03/21 01:10:44;;;;;;;5.43;3.40;;;5.00;93.60;;;;;;5049364;28;20478;-70
2021/03/21 01:13:10;;;;;;;6.32;3.55;;;5.00;94.50;;;;;;5040842;28;20163;-70
2021/03/21 01:15:36;;;;;;;7.43;3.90;;;5.00;95.00;;;;;;5047751;28;20107;-71
2021/03/21 01:18:01;;;;;;;7.82;3.83;;;5.00;95.80;;;;;;5045039;28;20066;-70
2021/03/21 01:20:28;;;;;;;6.28;3.67;;;5.00;96.70;;;;;;5039940;28;20024;-71
2021/03/21 01:22:54;;;;;;;8.00;4.07;;;4.90;97.60;;;;;;5045530;28;20399;-73
2021/03/21 01:25:25;;;;;;;6.55;3.88;;;4.90;98.60;;;;;;5033484;28;20510;-71
2021/03/21 01:27:52;;;;;;;;;;;4.90;99.90;;;;;;5040750;28;20464;-71
2021/03/21 01:30:18;;;;;;;8.25;4.07;;;4.80;99.90;;;;;;5036779;28;19909;-71
2021/03/21 01:32:44;;;;;;;8.65;4.43;;;4.80;99.90;;;;;;5044473;28;20032;-71
2021/03/21 01:35:11;;;;;;;7.20;4.25;;;4.90;99.90;;;;;;5039182;28;20445;-71
2021/03/21 01:37:37;;;;;;;8.55;4.15;;;5.00;99.90;;;;;;5048301;28;20411;-71
2021/03/21 01:40:05;;;;;;;8.02;4.95;;;4.90;99.90;;;;;;5041447;28;20061;-71
2021/03/21 01:42:36;;;;;;;6.63;4.22;;;4.90;99.90;;;;;;5045536;28;20025;-71
2021/03/21 01:45:22;;;;;;;10.45;4.82;;;4.90;99.90;;;;;;5040191;28;20361;-70
2021/03/21 01:47:48;;;;;;;15.82;4.82;;;4.80;99.90;;;;;;5038203;28;20043;-71
2021/03/21 01:50:38;;;;;;;11.82;4.97;;;4.80;99.90;;;;;;5040853;28;20443;-70
2021/03/21 01:53:06;;;;;;;8.65;4.72;;;4.80;99.90;;;;;;5028497;28;20128;-71
2021/03/21 01:55:33;;;;;;;10.13;4.68;;;4.80;99.90;;;;;;5030126;28;20030;-70
2021/03/21 01:57:58;;;;;;;11.13;4.88;;;4.80;99.90;;;;;;5033743;28;20108;-71
2021/03/21 02:00:26;;;;;;;7.68;4.72;;;4.80;99.90;;;;;;5036181;28;20083;-71
2021/03/21 02:02:51;;;;;;;7.85;4.75;;;4.80;99.90;;;;;;5032210;28;20090;-71
2021/03/21 02:05:17;;;;;;;9.68;5.07;;;4.80;99.90;;;;;;5033655;28;20041;-70
2021/03/21 02:08:20;;;;;;;12.68;4.97;;;4.80;99.90;;;;;;5034404;28;20071;-71
2021/03/21 02:11:11;;;;;;;10.15;5.25;;;4.70;99.90;;;;;;5043186;28;20021;-71
2021/03/21 02:13:56;;;;;;;10.45;5.28;;;4.70;99.90;;;;;;5030625;28;20029;-71
2021/03/21 02:16:30;;;;;;;11.00;5.72;;;4.70;99.90;;;;;;5036644;28;20049;-71
2021/03/21 02:19:39;;;;;;;9.13;5.38;;;4.80;99.90;;;;;;5017098;28;20079;-70
2021/03/21 02:22:10;;;;;;;10.45;5.43;;;4.70;99.90;;;;;;5033861;28;20153;-71
2021/03/21 02:25:22;;;;;;;9.95;5.72;;;4.80;99.90;;;;;;5032542;28;20554;-71
2021/03/21 02:28:00;;;;;;;10.38;5.72;;;4.80;99.90;;;;;;5035792;28;20692;-71
2021/03/21 02:30:35;;;;;;;16.75;6.30;;;4.80;99.90;;;;;;5024035;28;20028;-71
2021/03/21 02:33:12;;;;;;;12.15;5.90;;;4.80;99.90;;;;;;5029196;28;20029;-70
2021/03/21 02:35:57;;;;;;;10.55;5.90;;;4.80;99.90;;;;;;5037276;28;20028;-71
2021/03/21 02:38:32;;;;;;;13.07;5.93;;;4.80;99.90;;;;;;5035761;28;20029;-71
2021/03/21 02:41:04;;;;;;;9.80;5.72;;;4.80;99.90;;;;;;5031377;28;20057;-71
2021/03/21 02:43:41;;;;;;;13.10;6.32;;;4.80;99.90;;;;;;5037627;28;20088;-71
2021/03/21 02:46:12;;;;;;;11.30;5.85;;;4.80;99.90;;;;;;5035851;28;20116;-71
2021/03/21 02:48:44;;;;;;;10.20;6.13;;;4.80;99.90;;;;;;5043748;28;20108;-71
2021/03/21 02:51:18;;;;;;;10.90;6.03;;;4.80;99.90;;;;;;5040019;28;20051;-71
2021/03/21 02:53:47;;;;;;;11.23;5.60;;;4.80;99.90;;;;;;5053955;28;20039;-71
2021/03/21 02:56:18;;;;;;;10.73;6.05;;;4.80;99.90;;;;;;5051480;28;20026;-71
2021/03/21 02:58:54;;;;;;;12.52;6.32;;;4.80;99.90;;;;;;5051023;28;20502;-71
2021/03/21 03:01:24;;;;;;;10.63;5.70;;;4.80;99.90;;;;;;5058710;28;20028;-70
2021/03/21 03:03:55;;;;;;;9.85;6.00;;;4.80;99.90;;;;;;5040669;28;20483;-73
2021/03/21 03:06:26;;;;;;;13.02;6.47;;;4.80;99.90;;;;;;5047492;28;20078;-71
2021/03/21 03:08:53;;;;;;;;;;;4.80;99.90;;;;;;5062623;28;20064;-71
2021/03/21 03:11:29;;;;;;;10.48;5.78;;;4.80;99.90;;;;;;5052742;28;19916;-70
2021/03/21 03:14:02;;;;;;;10.13;5.60;;;4.80;99.90;;;;;;5052385;28;20040;-70
2021/03/21 03:17:09;;;;;;;9.90;5.82;;;4.80;99.90;;;;;;5061445;28;20024;-70
2021/03/21 03:19:57;;;;;;;10.90;6.15;;;4.90;99.90;;;;;;5000941;28;20040;-71
2021/03/21 03:22:39;;;;;;;9.27;6.00;;;4.90;99.90;;;;;;5061457;28;20032;-70
2021/03/21 03:25:23;;;;;;;13.48;6.00;;;4.90;99.90;;;;;;5043061;28;20644;-71
2021/03/21 03:28:10;;;;;;;9.02;5.47;;;4.90;99.90;;;;;;5052957;28;20032;-71
2021/03/21 03:30:49;;;;;;;10.82;6.13;;;4.90;99.90;;;;;;5059930;28;20499;-71
2021/03/21 03:33:15;;;;;;;9.05;5.05;;;4.90;99.90;;;;;;5053070;28;20494;-71
2021/03/21 03:35:40;;;;;;;10.07;5.38;;;4.90;99.90;;;;;;5054947;28;20029;-71
2021/03/21 03:38:10;;;;;;;10.93;6.00;;;4.90;99.90;;;;;;5051654;28;20433;-71
2021/03/21 03:40:38;;;;;;;10.18;5.75;;;5.00;99.90;;;;;;5029880;28;20045;-71
2021/03/21 03:43:06;;;;;;;9.48;5.25;;;5.00;99.90;;;;;;5043531;28;20116;-71
2021/03/21 03:46:02;;;;;;;11.73;6.07;;;5.00;99.90;;;;;;5058708;28;20025;-72
2021/03/21 03:48:39;;;;;;;13.40;6.05;;;5.00;99.90;;;;;;5056573;28;20024;-71
2021/03/21 03:51:42;;;;;;;10.35;5.80;;;5.00;99.90;;;;;;5059561;28;20063;-72
2021/03/21 03:54:12;;;;;;;9.25;5.15;;;5.00;99.90;;;;;;5062115;28;20044;-72
2021/03/21 03:56:47;;;;;;;7.78;4.50;;;5.10;99.90;;;;;;5052731;28;20033;-71
2021/03/21 03:59:19;;;;;;;11.23;5.03;;;5.10;99.90;;;;;;5061582;28;20070;-71
2021/03/21 04:01:56;;;;;;;9.90;5.47;;;5.10;99.90;;;;;;5059055;28;20039;-71
2021/03/21 04:04:47;;;;;;;8.80;4.97;;;5.10;99.90;;;;;;5041506;28;20056;-71
2021/03/21 04:07:21;;;;;;;7.75;4.75;;;5.10;99.90;;;;;;5058016;28;20021;-71
2021/03/21 04:09:55;;;;;;;10.15;4.93;;;5.20;99.90;;;;;;5057819;28;20380;-71
2021/03/21 04:12:34;;;;;;;5.55;3.60;;;5.20;99.90;;;;;;5049634;28;20032;-71
2021/03/21 04:15:16;;;;;;;5.80;3.80;;;5.20;99.90;;;;;;5044537;28;20029;-71
2021/03/21 04:17:55;;;;;;;7.40;3.90;;;5.20;99.90;;;;;;5048422;28;20040;-71
2021/03/21 04:20:38;;;;;;;7.88;4.38;;;5.30;99.90;;;;;;5060748;28;20035;-71
2021/03/21 04:23:15;;;;;;;5.97;3.60;;;5.30;99.90;;;;;;5064028;28;20024;-71
2021/03/21 04:25:48;;;;;;;5.53;3.30;;;5.30;99.90;;;;;;5061284;28;21883;-71
2021/03/21 04:28:25;;;;;;;6.57;3.60;;;5.30;99.90;;;;;;5055440;28;20033;-71
2021/03/21 04:30:56;;;;;;;5.25;3.55;;;5.40;99.90;;;;;;5060749;28;20855;-71
2021/03/21 04:33:26;;;;;;;4.88;3.08;;;5.30;99.90;;;;;;5052766;28;20063;-71
2021/03/21 04:36:01;;;;;;;9.13;3.00;;;5.30;99.90;;;;;;5055539;28;21018;-71
2021/03/21 04:38:56;;;;;;;6.13;3.30;;;5.40;99.90;;;;;;5049500;28;20025;-71
2021/03/21 04:41:45;;;;;;;6.85;2.97;;;5.30;99.90;;;;;;5040551;28;20020;-71
2021/03/21 04:44:19;;;;;;;3.92;2.47;;;5.40;99.90;;;;;;5054053;28;20032;-71
2021/03/21 04:46:57;;;;;;;5.05;2.92;;;5.30;99.90;;;;;;5058731;28;20024;-71
2021/03/21 04:49:23;;;;;;;6.40;3.00;;;5.40;99.90;;;;;;5055101;28;20449;-71
2021/03/21 04:51:55;;;;;;;11.40;3.13;;;5.40;99.90;;;;;;5047329;28;20043;-71
2021/03/21 04:54:25;;;;;;;8.77;2.60;;;5.40;99.90;;;;;;5061233;28;20041;-71
2021/03/21 04:56:58;;;;;;;4.55;2.70;;;5.50;99.90;;;;;;5049999;28;20432;-71
2021/03/21 04:59:35;;;;;;;3.97;2.50;;;5.40;99.90;;;;;;5031272;28;20032;-71
2021/03/21 05:02:18;;;;;;;4.32;2.63;;;5.40;99.90;;;;;;5054004;28;20561;-71
2021/03/21 05:04:51;;;;;;;4.13;2.53;;;5.40;99.90;;;;;;5062647;28;20491;-71
2021/03/21 05:07:39;;;;;;;5.00;2.42;;;5.40;99.90;;;;;;5053152;28;20122;-71
2021/03/21 05:10:29;;;;;;;4.85;2.47;;;5.50;99.90;;;;;;5054329;28;20039;-71
2021/03/21 05:13:02;;;;;;;4.03;2.30;;;5.50;99.90;;;;;;5056709;28;20041;-71
2021/03/21 05:15:58;;;;;;;2.65;1.85;;;5.50;99.90;;;;;;5037575;28;20028;-71
2021/03/21 05:18:46;;;;;;;2.67;2.00;;;5.50;99.90;;;;;;5048068;28;20025;-71
2021/03/21 05:21:22;;;;;;;2.67;1.80;;;5.50;99.90;;;;;;5055424;28;20056;-71
2021/03/21 05:24:01;;;;;;;3.50;2.17;;;5.50;99.90;;;;;;5047336;28;20033;-71
2021/03/21 05:26:33;;;;;;;2.78;1.95;;;5.60;99.90;;;;;;5058919;28;20501;-71
2021/03/21 05:29:23;;;;;;;;;;;5.60;99.90;;;;;;5059633;28;20173;-71
2021/03/21 05:31:50;;;;;;;3.05;1.90;;;5.60;99.90;;;;;;5051301;28;19975;-71
2021/03/21 05:34:16;;;;;;;3.58;2.20;;;5.70;99.90;;;;;;5065801;28;20031;-71
2021/03/21 05:36:55;;;;;;;4.00;1.70;;;5.70;99.90;;;;;;5055629;28;20398;-71
2021/03/21 05:39:26;;;;;;;3.50;2.00;;;5.70;99.90;;;;;;5057261;28;20040;-71
2021/03/21 05:42:10;;;;;;;2.28;1.90;;;5.70;99.90;;;;;;5057838;28;20048;-71
2021/03/21 05:44:45;;;;;;;2.67;1.77;;;5.70;99.90;;;;;;5055747;28;20036;-71
2021/03/21 05:47:51;;;;;;;2.33;1.77;;;5.70;99.90;;;;;;5056495;28;20032;-71
2021/03/21 05:50:53;;;;;;;2.72;1.70;;;5.80;99.90;;;;;;5062357;28;20028;-71
2021/03/21 05:53:36;;;;;;;2.65;1.77;;;5.80;99.90;;;;;;5064837;28;20115;-72
2021/03/21 05:56:27;;;;;;;2.55;1.80;;;5.80;99.90;;;;;;5061261;28;20035;-71
2021/03/21 05:59:27;;;;;;;2.58;1.63;;;5.80;99.90;;;;;;5060928;28;20576;-71
2021/03/21 06:02:11;;;;;;;2.20;1.52;;;5.90;99.90;;;;;;5062192;28;20059;-71
2021/03/21 06:04:55;;;;;;;2.00;1.63;;;5.90;99.90;;;;;;5066133;28;20021;-71
2021/03/21 06:07:54;;;;;;;3.65;1.50;;;5.90;99.90;;;;;;5062325;28;20032;-70
2021/03/21 06:10:41;;;;;;;2.15;1.60;;;5.90;99.90;;;;;;5060389;28;20028;-71
2021/03/21 06:13:28;;;;;;;3.10;1.75;;;5.90;99.90;;;;;;5062035;28;20020;-71
2021/03/21 06:16:17;;;;;;;1.88;1.55;;;6.00;99.90;;;;;;5068223;28;20123;-71
2021/03/21 06:18:55;;;;;;;2.75;1.83;;;6.00;99.90;;;;;;5062656;28;20131;-71
2021/03/21 06:21:49;;;;;;;2.08;1.60;;;6.00;99.90;;;;;;5056662;28;20089;-70
2021/03/21 06:24:59;;;;;;;2.72;1.67;;;5.90;99.90;;;;;;5057889;28;20671;-71
2021/03/21 06:27:55;;;;;;;3.38;2.20;;;6.00;99.90;;;;;;5016405;28;20117;-71
2021/03/21 06:30:45;;;;;;;2.33;1.65;;;6.10;99.90;;;;;;5041761;28;20033;-71
2021/03/21 06:33:43;;;;;;;2.30;1.50;;;6.10;99.90;;;;;;5058345;28;20615;-71
2021/03/21 06:36:33;;;;;;;2.53;1.75;;;6.00;99.90;;;;;;5064132;28;20347;-71
2021/03/21 06:39:20;;;;;;;3.00;1.90;;;6.10;99.90;;;;;;5060599;28;20043;-71
2021/03/21 06:42:14;;;;;;;4.05;1.90;;;6.20;99.90;;;;;;5059921;28;20016;-71
2021/03/21 06:45:11;;;;;;;4.72;1.73;;;6.20;99.90;;;;;;5057424;28;20100;-71
2021/03/21 06:48:01;;;;;;;2.55;1.60;;;6.20;99.90;;;;;;5059790;28;20028;-71
2021/03/21 06:50:42;;;;;;;2.58;1.70;;;6.20;99.90;;;;;;5048260;28;20116;-70
2021/03/21 06:53:42;;;;;;;2.47;1.88;;;6.30;99.90;;;;;;5057144;28;20395;-71
2021/03/21 06:56:31;;;;;;;2.25;1.70;;;6.30;99.90;;;;;;5062683;28;20021;-71
2021/03/21 06:59:06;;;;;;;2.75;1.80;;;6.40;99.90;;;;;;5064334;28;20486;-71
2021/03/21 07:02:00;;;;;;;3.17;2.08;;;6.40;99.90;;;;;;5061205;28;20033;-71
2021/03/21 07:04:50;;;;;;;3.65;1.83;;;6.40;99.90;;;;;;5053728;28;20024;-71
2021/03/21 07:07:37;;;;;;;1.85;1.50;;;6.40;99.90;;;;;;5057853;28;20040;-71
2021/03/21 07:10:21;;;;;;;1.75;1.50;;;6.40;99.90;;;;;;5061172;28;20033;-70
2021/03/21 07:13:24;;;;;;;1.95;1.35;;;6.40;99.90;;;;;;5056187;28;20089;-70
2021/03/21 07:16:23;;;;;;;1.83;1.48;;;6.40;99.90;;;;;;5060307;28;20037;-70
2021/03/21 07:18:51;;;;;;;4.20;1.48;;;6.50;99.90;;;;;;5069013;28;20041;-71
2021/03/21 07:21:52;;;;;;;2.13;1.65;;;6.50;99.90;;;;;;5066024;28;20025;-70
2021/03/21 07:24:44;;;;;;;2.50;1.50;;;6.50;99.90;;;;;;5055191;28;20135;-70
2021/03/21 07:27:29;;;;;;;1.60;1.33;;;6.50;99.90;;;;;;5060654;28;20040;-70
2021/03/21 07:30:06;;;;;;;1.50;1.30;;;6.50;99.90;;;;;;5053587;28;20046;-69
2021/03/21 07:33:09;;;;;;;1.65;1.20;;;6.50;99.90;;;;;;5062472;28;20060;-70
2021/03/21 07:35:53;;;;;;;2.65;1.30;;;6.50;99.90;;;;;;5058104;28;20436;-70
2021/03/21 07:38:37;;;;;;;0.95;0.90;;;6.50;99.90;;;;;;5053571;28;20057;-70
2021/03/21 07:41:16;;;;;;;1.35;1.08;;;6.60;99.90;;;;;;5058569;28;20494;-70
2021/03/21 07:44:22;;;;;;;2.58;1.30;;;6.60;99.90;;;;;;5066172;28;20021;-70
2021/03/21 07:47:06;;;;;;;1.30;1.00;;;6.70;99.90;;;;;;5057367;28;20034;-70
2021/03/21 07:50:05;;;;;;;1.67;1.30;;;6.80;99.90;;;;;;5044376;28;20032;-71
2021/03/21 07:52:48;;;;;;;1.20;1.00;;;6.90;99.90;;;;;;5051254;28;20041;-70
2021/03/21 07:55:34;;;;;;;1.33;1.15;;;7.00;99.90;;;;;;5053605;28;20667;-71
2021/03/21 07:58:12;;;;;;;1.48;1.10;;;7.10;99.90;;;;;;5049922;28;20107;-70
2021/03/21 08:00:39;;;;;;;1.00;0.90;;;7.10;99.90;;;;;;5064381;28;20017;-70
2021/03/21 08:03:37;;;;;;;1.35;1.13;;;7.00;99.90;;;;;;5057305;28;20029;-70
2021/03/21 08:06:11;;;;;;;1.63;1.00;;;7.10;99.90;;;;;;5034503;28;20051;-71
2021/03/21 08:08:42;;;;;;;1.35;0.95;;;7.20;99.90;;;;;;5044670;28;20514;-71
2021/03/21 08:11:07;;;;;;;1.33;0.90;;;7.20;99.90;;;;;;5035593;28;20524;-70
2021/03/21 08:13:43;;;;;;;1.65;0.93;;;7.20;99.90;;;;;;5049092;28;20131;-71
2021/03/21 08:16:14;;;;;;;0.88;0.70;;;7.20;99.90;;;;;;5053303;28;20569;-70
2021/03/21 08:18:40;;;;;;;1.05;0.93;;;7.30;99.90;;;;;;5049038;28;20115;-71
2021/03/21 08:21:16;;;;;;;1.30;0.93;;;7.30;99.90;;;;;;5061548;28;20032;-72
2021/03/21 08:23:46;;;;;;;1.63;1.00;;;7.40;99.90;;;;;;5043218;28;20056;-71
2021/03/21 08:26:17;;;;;;;1.30;0.98;;;7.40;99.90;;;;;;5053788;28;20024;-71
2021/03/21 08:29:06;;;;;;;0.83;0.83;;;7.40;99.90;;;;;;5060199;28;20024;-71
2021/03/21 08:31:36;;;;;;;0.98;0.85;;;7.50;99.90;;;;;;5047112;28;20032;-72
2021/03/21 08:34:29;;;;;;;1.52;0.98;;;7.40;99.90;;;;;;5051749;28;20064;-71
2021/03/21 08:36:54;;;;;;;0.93;0.88;;;7.30;99.90;;;;;;5051303;28;20131;-72
2021/03/21 08:39:35;;;;;;;1.02;0.88;;;7.40;99.90;;;;;;5057310;28;20520;-70
2021/03/21 08:42:01;;;;;;;1.15;1.00;;;7.40;99.90;;;;;;5061922;28;20029;-69
2021/03/21 08:44:39;;;;;;;0.70;0.70;;;7.30;99.90;;;;;;5066081;28;20029;-69
2021/03/21 08:47:14;;;;;;;1.52;1.02;;;7.20;99.90;;;;;;5056604;28;20543;-69
2021/03/21 08:49:47;;;;;;;1.08;0.68;;;7.40;99.90;;;;;;5055337;28;20126;-70
2021/03/21 08:52:41;;;;;;;1.13;0.98;;;7.30;99.90;;;;;;5066353;28;20527;-70
2021/03/21 08:55:26;;;;;;;1.85;0.90;;;7.40;99.90;;;;;;5050034;28;20052;-71
2021/03/21 08:57:52;;;;;;;2.58;1.15;;;7.50;99.90;;;;;;5058104;28;20057;-70
2021/03/21 09:00:23;;;;;;;5.38;1.00;;;7.50;99.90;;;;;;5050238;28;20122;-71
2021/03/21 09:02:52;;;;;;;3.63;1.00;;;7.60;99.90;;;;;;5048413;28;20052;-72
2021/03/21 09:05:20;;;;;;;2.35;1.10;;;7.60;99.90;;;;;;5055014;28;20037;-73
2021/03/21 09:07:48;;;;;;;4.47;1.55;;;7.60;99.90;;;;;;5052173;28;20029;-71
2021/03/21 09:10:46;;;;;;;5.47;1.58;;;7.60;99.90;;;;;;5058920;28;20032;-72
2021/03/21 09:13:11;;;;;;;4.28;2.65;;;7.60;99.90;;;;;;5060363;28;20479;-71
2021/03/21 09:15:42;;;;;;;4.80;1.42;;;7.50;99.90;;;;;;5054714;28;20081;-71
2021/03/21 09:18:28;;;;;;;4.97;1.65;;;7.50;99.90;;;;;;5075229;28;20033;-72
2021/03/21 09:20:58;;;;;;;3.63;1.33;;;7.50;99.90;;;;;;5061998;28;20081;-72
2021/03/21 09:23:36;;;;;;;6.22;1.85;;;7.70;99.90;;;;;;5053507;28;20031;-70
2021/03/21 09:26:09;;;;;;;5.72;1.42;;;7.80;99.90;;;;;;5055976;28;20085;-70
2021/03/21 09:28:40;;;;;;;5.93;2.17;;;7.80;99.90;;;;;;5060426;28;20056;-70
2021/03/21 09:31:10;;;;;;;3.85;1.20;;;7.80;99.90;;;;;;5062296;28;20031;-70
2021/03/21 09:33:44;;;;;;;3.67;1.30;;;7.80;99.90;;;;;;5065048;28;20034;-70
2021/03/21 09:36:35;;;;;;;4.95;1.55;;;7.80;99.90;;;;;;5060212;28;20028;-70
2021/03/21 09:39:17;;;;;;;4.57;1.40;;;7.70;99.90;;;;;;5039546;28;20041;-71
2021/03/21 09:41:46;;;;;;;4.22;1.25;;;7.80;99.90;;;;;;5059544;28;20055;-71
2021/03/21 09:44:46;;;;;;;4.75;1.95;;;7.70;99.90;;;;;;5056318;28;20052;-70
2021/03/21 09:47:26;;;;;;;10.60;1.83;;;7.80;99.90;;;;;;5070418;28;20028;-71
2021/03/21 09:50:20;;;;;;;2.38;1.30;;;7.80;99.90;;;;;;5060534;28;20029;-71
2021/03/21 09:53:04;;;;;;;5.43;1.58;;;7.90;99.90;;;;;;5065149;28;20251;-71
2021/03/21 09:55:49;;;;;;;7.78;1.77;;;7.90;99.90;;;;;;5061979;28;20029;-69
2021/03/21 09:58:50;;;;;;;6.65;1.73;;;7.90;99.90;;;;;;5055406;28;20112;-70
2021/03/21 10:01:28;;;;;;;3.50;1.40;;;7.80;99.90;;;;;;4989245;28;22236;-70
2021/03/21 10:04:00;;;;;;;6.40;1.75;;;7.80;99.90;;;;;;5054529;28;20491;-69
2021/03/21 10:06:31;;;;;;;5.72;1.50;;;7.80;99.90;;;;;;5065407;28;20035;-70
2021/03/21 10:09:16;;;;;;;4.95;1.90;;;7.70;99.90;;;;;;5066875;28;20029;-70
2021/03/21 10:11:48;;;;;;;9.35;2.00;;;7.60;99.90;;;;;;5068862;28;20036;-71
2021/03/21 10:14:25;;;;;;;4.75;1.67;;;7.60;99.90;;;;;;5066768;28;20035;-70
2021/03/21 10:16:58;;;;;;;12.23;2.85;;;7.80;99.90;;;;;;5065843;28;20036;-71
2021/03/21 10:19:45;;;;;;;5.68;2.03;;;7.90;99.90;;;;;;5064769;28;20509;-72
2021/03/21 10:22:28;;;;;;;11.45;1.98;;;8.00;99.90;;;;;;5065965;28;20061;-72
2021/03/21 10:25:09;;;;;;;8.18;1.95;;;8.00;99.90;;;;;;5065327;28;20035;-71
2021/03/21 10:27:40;;;;;;;3.80;1.65;;;8.00;99.90;;;;;;5063558;28;20044;-72
2021/03/21 10:30:28;;;;;;;5.88;1.85;;;7.90;99.90;;;;;;5065837;28;20402;-71
2021/03/21 10:33:00;;;;;;;10.50;2.05;;;8.00;99.90;;;;;;5063315;28;20156;-73
2021/03/21 10:35:26;;;;;;;6.80;1.67;;;7.90;99.90;;;;;;5068423;28;20040;-72
2021/03/21 10:37:58;;;;;;;6.70;1.75;;;7.90;99.90;;;;;;5068499;28;20635;-72
2021/03/21 10:40:23;;;;;;;7.28;2.25;;;7.80;99.90;;;;;;5068766;28;20054;-71
2021/03/21 10:43:03;;;;;;;12.27;1.98;;;7.70;99.90;;;;;;5067493;28;20114;-70
2021/03/21 10:45:35;;;;;;;7.20;2.15;;;7.70;99.90;;;;;;5067016;28;20040;-73
2021/03/21 10:48:11;;;;;;;7.78;1.90;;;7.70;99.90;;;;;;5068669;28;20028;-72
2021/03/21 10:50:45;;;;;;;5.03;1.80;;;7.70;99.90;;;;;;5067883;28;20032;-71
2021/03/21 10:53:57;;;;;;;9.45;2.13;;;7.60;99.90;;;;;;5066358;28;20028;-71
2021/03/21 10:56:23;;;;;;;;;;;7.50;99.90;;;;;;5066638;28;20070;-71
2021/03/21 10:58:53;;;;;;;9.90;2.70;;;7.50;99.90;;;;;;5066997;28;19920;-72
2021/03/21 11:04:00;;;;;;;8.63;2.28;;;7.50;99.90;;;;;;5061602;28;20033;-71
2021/03/21 11:06:28;;;;;;;7.07;2.45;;;7.50;99.90;;;;;;5066402;28;20437;-72
2021/03/21 11:08:54;;;;;;;11.00;2.40;;;7.50;99.90;;;;;;5066294;28;20043;-71
2021/03/21 11:11:32;;;;;;;8.77;2.35;;;7.40;99.90;;;;;;5067988;28;20024;-71
2021/03/21 11:14:14;;;;;;;6.45;2.15;;;7.40;99.90;;;;;;5067411;28;20111;-72
2021/03/21 11:16:47;;;;;;;10.82;2.97;;;7.50;99.90;;;;;;5066775;28;20036;-72
2021/03/21 11:19:28;;;;;;;11.15;2.00;;;7.50;99.90;;;;;;5070192;28;20047;-71
2021/03/21 11:21:54;;;;;;;14.57;2.88;;;7.50;99.90;;;;;;5056853;28;20078;-71
2021/03/21 11:24:36;;;;;;;13.60;2.83;;;7.60;99.90;;;;;;5066438;28;20040;-71
2021/03/21 11:27:10;;;;;;;16.63;2.65;;;7.50;99.90;;;;;;5058656;28;20021;-72
2021/03/21 11:29:39;;;;;;;11.20;2.80;;;7.50;99.90;;;;;;5048494;28;20025;-72
2021/03/21 11:32:26;;;;;;;11.77;2.55;;;7.60;99.90;;;;;;5056849;28;20032;-72
2021/03/21 11:35:14;;;;;;;11.68;3.55;;;7.70;99.90;;;;;;5063366;28;20051;-70
2021/03/21 11:37:44;;;;;;;14.68;2.67;;;7.70;99.90;;;;;;5049842;28;20067;-71
2021/03/21 11:40:30;;;;;;;18.08;3.53;;;7.80;99.90;;;;;;5056853;28;20093;-72
2021/03/21 11:43:27;;;;;;;17.05;3.53;;;7.90;99.90;;;;;;5059302;28;20092;-71
2021/03/21 11:45:53;;;;;;;16.05;2.65;;;8.10;99.90;;;;;;5042815;28;20026;-72
2021/03/21 11:48:21;;;;;;;20.25;3.72;;;8.10;99.90;;;;;;5060124;28;20131;-71
2021/03/21 11:50:51;;;;;;;14.18;3.72;;;8.20;99.90;;;;;;5058735;28;20487;-71
2021/03/21 11:53:21;;;;;;;15.95;2.97;;;8.40;99.90;;;;;;5054859;28;20020;-71
2021/03/21 11:56:02;;;;;;;19.63;3.85;;;8.50;99.90;;;;;;5056606;28;20013;-72
2021/03/21 11:58:38;;;;;;;16.85;4.30;;;8.70;99.90;;;;;;5046534;28;20123;-70
2021/03/21 12:01:15;;;;;;;18.02;3.10;;;8.90;99.90;;;;;;5056199;28;20478;-72
2021/03/21 12:03:56;;;;;;;20.00;3.42;;;9.10;99.90;;;;;;5061065;28;20028;-72
2021/03/21 12:06:40;;;;;;;17.42;2.95;;;9.30;99.90;;;;;;5050128;28;20471;-72
2021/03/21 12:09:12;;;;;;;13.07;2.70;;;9.80;99.90;;;;;;5042673;28;20094;-72
2021/03/21 12:11:41;;;;;;;14.57;2.63;;;10.00;99.90;;;;;;5052675;28;20033;-72
2021/03/21 12:14:27;;;;;;;11.80;2.05;;;10.00;99.90;;;;;;5054178;28;20033;-72
2021/03/21 12:16:53;;;;;;;13.57;2.88;;;10.00;99.90;;;;;;5056391;28;20032;-73
2021/03/21 12:19:30;;;;;;;13.20;2.88;;;10.10;99.90;;;;;;5059860;28;20431;-73
2021/03/21 12:22:04;;;;;;;13.13;2.65;;;10.10;99.90;;;;;;5061150;28;20040;-70
2021/03/21 12:24:31;;;;;;;14.18;2.60;;;10.30;99.90;;;;;;5051179;28;20016;-69
2021/03/21 12:27:04;;;;;;;14.10;2.75;;;10.30;99.90;;;;;;5054923;28;20033;-71
2021/03/21 12:29:40;;;;;;;14.82;3.33;;;10.40;99.90;;;;;;5060151;28;20040;-70
2021/03/21 12:32:24;;;;;;;7.43;2.60;;;10.40;99.90;;;;;;5062225;28;20039;-71
2021/03/21 12:34:51;;;;;;;10.02;2.50;;;10.30;99.90;;;;;;5048055;28;20667;-70
2021/03/21 12:37:22;;;;;;;12.18;2.90;;;10.40;99.90;;;;;;5048624;28;20107;-71
2021/03/21 12:39:52;;;;;;;9.27;2.38;;;11.20;99.90;;;;;;5062020;28;20033;-72
2021/03/21 12:42:37;;;;;;;9.32;2.30;;;11.50;98.50;;;;;;5059505;28;20400;-71
2021/03/21 12:45:19;;;;;;;9.00;2.08;;;11.40;97.70;;;;;;5056768;28;20090;-71
2021/03/21 12:48:01;;;;;;;9.75;2.13;;;11.10;96.80;;;;;;5053706;28;20032;-70
2021/03/21 12:50:29;;;;;;;;;;;11.10;97.60;;;;;;5047809;28;20037;-71
2021/03/21 12:53:01;;;;;;;11.57;2.15;;;11.70;97.30;;;;;;5011277;28;20003;-71
2021/03/21 12:55:27;;;;;;;9.30;2.03;;;13.30;95.20;;;;;;5026314;28;20029;-71
2021/03/21 12:57:53;;;;;;;7.13;2.63;;;14.60;87.30;;;;;;5042965;28;20032;-72
2021/03/21 13:00:29;;;;;;;7.82;2.03;;;15.90;84.90;;;;;;5037700;28;20051;-71
2021/03/21 13:02:56;;;;;;;7.10;1.67;;;16.30;71.70;;;;;;5019773;28;20028;-72
2021/03/21 13:05:35;;;;;;;11.65;2.58;;;16.40;66.10;;;;;;5035862;28;20116;-72
2021/03/21 13:08:02;;;;;;;6.70;2.22;;;17.00;64.30;;;;;;5046060;28;20140;-71
2021/03/21 13:10:29;;;;;;;7.53;2.38;;;16.70;64.00;;;;;;5041390;28;20025;-72
2021/03/21 13:12:55;;;;;;;6.43;1.92;;;16.20;65.30;;;;;;5026093;28;20029;-71
2021/03/21 13:15:21;;;;;;;8.20;1.70;;;15.50;63.20;;;;;;5036951;28;20049;-71
2021/03/21 13:17:48;;;;;;;5.82;1.55;;;14.80;66.00;;;;;;5048423;28;20045;-71
2021/03/21 13:20:16;;;;;;;4.20;1.90;;;13.90;68.10;;;;;;5040371;28;20036;-72
2021/03/21 13:22:42;;;;;;;4.88;1.67;;;14.70;69.80;;;;;;5034193;28;20031;-71
2021/03/21 13:25:09;;;;;;;6.28;1.70;;;14.20;67.10;;;;;;5041071;28;20111;-71
2021/03/21 13:27:35;;;;;;;6.80;1.73;;;13.60;67.00;;;;;;5031226;28;20358;-71
2021/03/21 13:30:01;;;;;;;5.03;1.38;;;13.10;70.40;;;;;;5040072;28;20044;-72
2021/03/21 13:32:27;;;;;;;7.53;1.70;;;13.00;71.80;;;;;;5035166;28;20668;-72
2021/03/21 13:34:53;;;;;;;4.38;1.23;;;12.60;72.40;;;;;;5037075;28;20024;-72
2021/03/21 13:37:20;;;;;;;3.80;1.30;;;12.90;73.40;;;;;;5041407;28;20029;-72
2021/03/21 13:39:50;;;;;;;3.20;1.30;;;14.20;69.40;;;;;;5038552;28;20028;-72
2021/03/21 13:42:16;;;;;;;3.22;1.20;;;14.70;64.90;;;;;;5038092;28;20465;-72
2021/03/21 13:44:43;;;;;;;2.75;1.13;;;14.20;64.20;;;;;;5040464;28;20016;-71
2021/03/21 13:47:10;;;;;;;3.40;1.35;;;13.50;65.20;;;;;;5041302;28;20052;-72
2021/03/21 13:49:36;;;;;;;8.82;1.73;;;13.10;67.40;;;;;;5037629;28;20036;-72